createdAt,value
2022-08-08T00:02:32.858Z,100749.31
2022-08-08T00:05:09.862Z,100753.50
2022-08-08T00:08:03.315Z,100746.72
2022-08-08T00:10:45.412Z,100749.94
2022-08-08T00:14:16.679Z,100743.03
2022-08-08T00:16:13.016Z,100749.16
2022-08-08T00:18:50.170Z,100742.84
2022-08-08T00:21:24.606Z,100745.78
2022-08-08T00:23:54.368Z,100747.66
2022-08-08T00:26:31.633Z,100751.00
2022-08-08T00:29:03.076Z,100744.56
2022-08-08T00:32:16.201Z,100743.56
2022-08-08T00:34:46.934Z,100744.16
2022-08-08T00:37:45.133Z,100746.03
2022-08-08T00:41:10.632Z,100755.69
2022-08-08T00:43:20.382Z,100761.59
2022-08-08T00:45:48.043Z,100753.41
2022-08-08T00:48:30.148Z,100756.28
2022-08-08T00:51:18.275Z,100749.56
2022-08-08T00:54:13.654Z,100741.31
2022-08-08T00:57:02.262Z,100746.06
2022-08-08T00:59:50.834Z,100743.13
2022-08-08T01:03:15.392Z,100740.88
2022-08-08T01:05:42.274Z,100752.44
2022-08-08T01:08:52.464Z,100755.38
2022-08-08T01:11:24.318Z,100747.75
2022-08-08T01:14:16.468Z,100741.91
2022-08-08T01:16:46.382Z,100743.38
2022-08-08T01:19:52.412Z,100749.41
2022-08-08T01:22:43.806Z,100744.41
2022-08-08T01:25:40.115Z,100747.47
2022-08-08T01:28:41.936Z,100742.53
2022-08-08T01:32:06.631Z,100740.22
2022-08-08T01:34:36.365Z,100751.22
2022-08-08T01:37:51.140Z,100744.41
2022-08-08T01:40:14.597Z,100743.69
2022-08-08T01:42:51.878Z,100745.41
2022-08-08T01:45:41.797Z,100741.06
2022-08-08T01:48:31.454Z,100732.03
2022-08-08T01:51:06.178Z,100730.44
2022-08-08T01:55:27.111Z,100727.47
2022-08-08T01:56:50.504Z,100727.34
2022-08-08T01:59:38.181Z,100730.19
2022-08-08T02:02:34.906Z,100733.91
2022-08-08T02:05:33.873Z,100731.06
2022-08-08T02:08:18.345Z,100722.16
2022-08-08T02:11:05.610Z,100720.31
2022-08-08T02:13:53.785Z,100721.41
2022-08-08T02:16:23.754Z,100718.44
2022-08-08T02:18:58.712Z,100722.28
2022-08-08T02:21:49.124Z,100719.56
2022-08-08T02:24:38.442Z,100712.25
2022-08-08T02:27:19.022Z,100712.41
2022-08-08T02:29:52.784Z,100708.94
2022-08-08T02:32:34.708Z,100705.34
2022-08-08T02:35:10.408Z,100705.34
2022-08-08T02:38:12.728Z,100705.84
2022-08-08T02:40:45.330Z,100708.81
2022-08-08T02:44:36.932Z,100715.25
2022-08-08T02:46:37.027Z,100712.88
2022-08-08T02:49:18.717Z,100721.53
2022-08-08T02:52:35.355Z,100714.47
2022-08-08T02:54:52.849Z,100716.72
2022-08-08T02:57:44.986Z,100718.91
2022-08-08T03:00:35.802Z,100718.44
2022-08-08T03:03:46.156Z,100721.50
2022-08-08T03:06:24.297Z,100714.03
2022-08-08T03:09:08.513Z,100714.53
2022-08-08T03:12:02.835Z,100712.56
2022-08-08T03:16:02.682Z,100706.06
2022-08-08T03:17:40.637Z,100704.41
2022-08-08T03:20:13.603Z,100704.72
2022-08-08T03:22:46.327Z,100710.88
2022-08-08T03:25:18.557Z,100712.47
2022-08-08T03:27:56.791Z,100712.41
2022-08-08T03:30:25.526Z,100706.31
2022-08-08T03:33:56.724Z,100711.75
2022-08-08T03:36:01.910Z,100709.53
2022-08-08T03:38:57.288Z,100717.19
2022-08-08T03:42:13.059Z,100710.28
2022-08-08T03:44:07.122Z,100712.25
2022-08-08T03:46:49.206Z,100715.84
2022-08-08T03:49:58.520Z,100714.97
2022-08-08T03:52:13.276Z,100712.88
2022-08-08T03:55:10.104Z,100713.38
2022-08-08T03:58:09.524Z,100714.00
2022-08-08T04:00:31.829Z,100720.16
2022-08-08T04:03:11.498Z,100711.66
2022-08-08T04:05:47.955Z,100722.53
2022-08-08T04:08:32.981Z,100719.44
2022-08-08T04:11:10.861Z,100723.25
2022-08-08T04:14:03.288Z,100719.81
2022-08-08T04:16:38.720Z,100721.41
2022-08-08T04:19:24.004Z,100725.47
2022-08-08T04:21:56.977Z,100733.88
2022-08-08T04:24:29.385Z,100723.88
2022-08-08T04:27:00.840Z,100731.28
2022-08-08T04:29:33.361Z,100731.91
2022-08-08T04:32:08.286Z,100733.00
2022-08-08T04:34:42.928Z,100735.97
2022-08-08T04:37:31.517Z,100735.22
2022-08-08T04:40:05.274Z,100737.81
2022-08-08T04:42:46.645Z,100739.28
2022-08-08T04:45:27.779Z,100736.56
2022-08-08T04:48:00.778Z,100734.59
2022-08-08T04:50:37.905Z,100740.56
2022-08-08T04:53:14.065Z,100740.44
2022-08-08T04:55:56.821Z,100741.78
2022-08-08T04:58:27.719Z,100736.97
2022-08-08T05:00:57.372Z,100737.13
2022-08-08T05:04:10.586Z,100735.38
2022-08-08T05:06:18.384Z,100741.28
2022-08-08T05:08:54.222Z,100738.09
2022-08-08T05:11:26.251Z,100745.25
2022-08-08T05:14:01.316Z,100742.66
2022-08-08T05:16:54.721Z,100739.44
2022-08-08T05:20:10.475Z,100737.72
2022-08-08T05:22:10.336Z,100740.31
2022-08-08T05:24:42.019Z,100738.09
2022-08-08T05:27:16.827Z,100745.13
2022-08-08T05:29:45.300Z,100734.66
2022-08-08T05:32:17.975Z,100732.91
2022-08-08T05:34:50.321Z,100736.63
2022-08-08T05:37:39.188Z,100735.63
2022-08-08T05:40:16.779Z,100741.41
2022-08-08T05:42:46.276Z,100742.88
2022-08-08T05:45:25.186Z,100747.84
2022-08-08T05:48:08.612Z,100752.66
2022-08-08T05:50:38.972Z,100754.94
2022-08-08T05:53:53.693Z,100759.59
2022-08-08T05:56:07.904Z,100771.59
2022-08-08T05:58:53.619Z,100761.56
2022-08-08T06:01:51.770Z,100762.06
2022-08-08T06:04:23.796Z,100768.88
2022-08-08T06:06:56.566Z,100777.88
2022-08-08T06:09:59.320Z,100775.03
2022-08-08T06:12:30.533Z,100772.97
2022-08-08T06:15:02.770Z,100784.09
2022-08-08T06:17:51.002Z,100789.03
2022-08-08T06:20:23.088Z,100792.50
2022-08-08T06:22:54.458Z,100797.06
2022-08-08T06:25:33.317Z,100806.09
2022-08-08T06:28:16.054Z,100809.91
2022-08-08T06:30:45.207Z,100799.75
2022-08-08T06:33:15.204Z,100818.66
2022-08-08T06:36:04.920Z,100819.63
2022-08-08T06:38:35.918Z,100817.16
2022-08-08T06:41:08.105Z,100824.84
2022-08-08T06:43:41.532Z,100829.19
2022-08-08T06:46:23.605Z,100828.41
2022-08-08T06:48:52.783Z,100825.94
2022-08-08T06:51:22.390Z,100830.78
2022-08-08T06:53:51.361Z,100830.50
2022-08-08T06:56:26.894Z,100834.22
2022-08-08T06:58:54.810Z,100823.88
2022-08-08T07:01:24.729Z,100824.69
2022-08-08T07:04:40.708Z,100823.69
2022-08-08T07:07:11.606Z,100833.19
2022-08-08T07:09:59.416Z,100835.22
2022-08-08T07:12:49.476Z,100836.31
2022-08-08T07:16:05.238Z,100836.94
2022-08-08T07:18:40.586Z,100844.31
2022-08-08T07:21:18.579Z,100848.63
2022-08-08T07:24:09.482Z,100851.19
2022-08-08T07:26:53.211Z,100849.47
2022-08-08T07:29:59.623Z,100848.41
2022-08-08T07:32:17.249Z,100855.28
2022-08-08T07:35:00.531Z,100856.84
2022-08-08T07:37:49.769Z,100859.59
2022-08-08T07:40:32.344Z,100859.31
2022-08-08T07:43:09.591Z,100856.94
2022-08-08T07:46:04.732Z,100867.09
2022-08-08T07:48:31.483Z,100855.19
2022-08-08T07:51:01.300Z,100869.34
2022-08-08T07:54:02.337Z,100860.44
2022-08-08T07:56:36.173Z,100859.72
2022-08-08T07:59:11.491Z,100865.44
2022-08-08T08:02:35.398Z,100868.38
2022-08-08T08:04:55.639Z,100871.69
2022-08-08T08:07:32.103Z,100860.78
2022-08-08T08:10:04.698Z,100873.34
2022-08-08T08:12:41.238Z,100868.41
2022-08-08T08:15:17.118Z,100874.38
2022-08-08T08:17:55.343Z,100876.72
2022-08-08T08:20:30.175Z,100872.16
2022-08-08T08:22:58.700Z,100860.69
2022-08-08T08:25:42.841Z,100866.59
2022-08-08T08:28:21.556Z,100867.63
2022-08-08T08:30:56.611Z,100868.34
2022-08-08T08:33:26.379Z,100862.06
2022-08-08T08:36:21.077Z,100863.53
2022-08-08T08:38:49.783Z,100863.44
2022-08-08T08:41:24.132Z,100868.03
2022-08-08T08:44:14.232Z,100866.28
2022-08-08T08:46:45.402Z,100867.06
2022-08-08T08:49:15.714Z,100867.78
2022-08-08T08:51:51.023Z,100864.59
2022-08-08T08:54:25.393Z,100870.22
2022-08-08T08:56:54.944Z,100862.16
2022-08-08T08:59:58.746Z,100870.34
2022-08-08T09:02:18.943Z,100863.91
2022-08-08T09:04:50.294Z,100864.19
2022-08-08T09:07:23.419Z,100867.31
2022-08-08T09:09:57.705Z,100866.22
2022-08-08T09:12:40.090Z,100867.94
2022-08-08T09:15:12.766Z,100863.34
2022-08-08T09:17:55.438Z,100868.19
2022-08-08T09:22:01.476Z,100863.00
2022-08-08T09:23:17.866Z,100861.38
2022-08-08T09:26:02.422Z,100854.84
2022-08-08T09:28:38.603Z,100857.13
2022-08-08T09:31:16.278Z,100857.91
2022-08-08T09:34:14.936Z,100848.53
2022-08-08T09:36:40.377Z,100839.00
2022-08-08T09:39:20.883Z,100845.66
2022-08-08T09:42:21.280Z,100845.06
2022-08-08T09:45:08.048Z,100843.69
2022-08-08T09:48:09.754Z,100843.47
2022-08-08T09:50:32.544Z,100836.69
2022-08-08T09:53:15.325Z,100836.69
2022-08-08T09:56:04.646Z,100828.59
2022-08-08T09:58:41.431Z,100827.63
2022-08-08T10:01:14.332Z,100830.53
2022-08-08T10:03:46.129Z,100829.09
2022-08-08T10:06:29.362Z,100812.03
2022-08-08T10:08:57.533Z,100815.94
2022-08-08T10:12:26.402Z,100821.22
2022-08-08T10:14:28.242Z,100814.31
2022-08-08T10:16:59.794Z,100811.75
2022-08-08T10:19:45.974Z,100812.91
2022-08-08T10:22:24.231Z,100809.91
2022-08-08T10:24:54.744Z,100799.72
2022-08-08T10:27:26.325Z,100802.66
2022-08-08T10:29:59.925Z,100799.06
2022-08-08T10:32:40.317Z,100798.19
2022-08-08T10:35:20.633Z,100791.47
2022-08-08T10:38:05.358Z,100792.16
2022-08-08T10:40:33.187Z,100787.53
2022-08-08T10:43:05.029Z,100795.13
2022-08-08T10:45:42.355Z,100786.91
2022-08-08T10:48:31.833Z,100779.81
2022-08-08T10:51:11.217Z,100779.88
2022-08-08T10:53:56.562Z,100783.41
2022-08-08T10:56:27.870Z,100779.56
2022-08-08T10:59:00.394Z,100772.88
2022-08-08T11:01:29.105Z,100776.50
2022-08-08T11:04:04.491Z,100782.75
2022-08-08T11:06:34.167Z,100778.53
2022-08-08T11:09:14.962Z,100775.31
2022-08-08T11:12:05.564Z,100766.22
2022-08-08T11:14:34.748Z,100772.34
2022-08-08T11:17:03.025Z,100770.38
2022-08-08T11:19:33.699Z,100769.19
2022-08-08T11:22:04.101Z,100767.56
2022-08-08T11:24:33.524Z,100773.16
2022-08-08T11:27:19.118Z,100768.75
2022-08-08T11:30:18.601Z,100767.78
2022-08-08T11:32:38.071Z,100757.31
2022-08-08T11:35:23.501Z,100754.41
2022-08-08T11:38:35.148Z,100752.50
2022-08-08T11:40:51.256Z,100752.41
2022-08-08T11:43:21.559Z,100756.00
2022-08-08T11:46:10.006Z,100757.53
2022-08-08T11:48:38.711Z,100751.06
2022-08-08T11:51:30.445Z,100746.28
2022-08-08T11:53:58.888Z,100755.47
2022-08-08T11:56:32.545Z,100755.13
2022-08-08T11:59:11.794Z,100753.66
2022-08-08T12:01:39.179Z,100745.78
2022-08-08T12:04:08.068Z,100750.16
2022-08-08T12:06:35.582Z,100746.47
2022-08-08T12:09:09.649Z,100746.72
2022-08-08T12:11:46.013Z,100753.69
2022-08-08T12:14:24.040Z,100739.47
2022-08-08T12:16:57.227Z,100748.97
2022-08-08T12:19:37.766Z,100742.63
2022-08-08T12:22:20.608Z,100742.44
2022-08-08T12:24:53.832Z,100740.22
2022-08-08T12:27:26.709Z,100745.34
2022-08-08T12:29:56.167Z,100736.28
2022-08-08T12:32:23.469Z,100738.63
2022-08-08T12:35:13.387Z,100735.34
2022-08-08T12:38:00.937Z,100736.69
2022-08-08T12:40:54.823Z,100738.56
2022-08-08T12:43:31.984Z,100737.34
2022-08-08T12:46:02.991Z,100743.56
2022-08-08T12:48:36.428Z,100730.50
2022-08-08T12:51:10.884Z,100737.84
2022-08-08T12:53:44.823Z,100743.91
2022-08-08T12:56:18.807Z,100733.41
2022-08-08T12:58:54.317Z,100734.44
2022-08-08T13:01:42.892Z,100731.69
2022-08-08T13:04:19.135Z,100732.88
2022-08-08T13:06:58.621Z,100724.66
2022-08-08T13:09:33.209Z,100727.06
2022-08-08T13:12:24.728Z,100730.19
2022-08-08T13:14:52.907Z,100718.44
2022-08-08T13:18:08.672Z,100724.00
2022-08-08T13:20:18.208Z,100713.25
2022-08-08T13:22:46.357Z,100720.66
2022-08-08T13:25:16.097Z,100718.69
2022-08-08T13:27:44.457Z,100712.16
2022-08-08T13:30:21.229Z,100710.78
2022-08-08T13:32:57.593Z,100708.16
2022-08-08T13:35:29.574Z,100700.50
2022-08-08T13:38:08.139Z,100693.81
2022-08-08T13:40:41.361Z,100692.78
2022-08-08T13:43:09.031Z,100692.56
2022-08-08T13:45:37.620Z,100692.25
2022-08-08T13:48:11.523Z,100685.75
2022-08-08T13:50:50.809Z,100688.84
2022-08-08T13:53:34.083Z,100683.53
2022-08-08T13:56:10.982Z,100682.38
2022-08-08T13:58:58.382Z,100682.19
2022-08-08T14:01:32.894Z,100671.91
2022-08-08T14:04:21.550Z,100677.75
2022-08-08T14:06:49.044Z,100679.84
2022-08-08T14:09:24.402Z,100677.28
2022-08-08T14:11:58.242Z,100664.50
2022-08-08T14:14:39.578Z,100672.38
2022-08-08T14:17:07.582Z,100669.81
2022-08-08T14:19:58.117Z,100663.16
2022-08-08T14:22:36.498Z,100657.63
2022-08-08T14:25:07.697Z,100659.50
2022-08-08T14:27:40.592Z,100647.69
2022-08-08T14:30:18.021Z,100647.72
2022-08-08T14:32:47.450Z,100650.84
2022-08-08T14:35:35.411Z,100645.41
2022-08-08T14:38:34.722Z,100646.91
2022-08-08T14:40:59.355Z,100636.97
2022-08-08T14:44:02.188Z,100635.94
2022-08-08T14:46:16.693Z,100635.22
2022-08-08T14:48:57.074Z,100632.47
2022-08-08T14:51:46.998Z,100636.94
2022-08-08T14:54:16.191Z,100634.00
2022-08-08T14:56:57.173Z,100636.25
2022-08-08T14:59:44.359Z,100636.59
2022-08-08T15:02:13.976Z,100631.81
2022-08-08T15:04:43.429Z,100637.81
2022-08-08T15:07:24.494Z,100637.81
2022-08-08T15:10:01.057Z,100637.81
2022-08-08T15:12:28.889Z,100633.03
2022-08-08T15:14:56.702Z,100634.88
2022-08-08T15:17:23.993Z,100639.31
2022-08-08T15:19:51.714Z,100638.59
2022-08-08T15:22:23.757Z,100643.63
2022-08-08T15:24:51.501Z,100641.38
2022-08-08T15:27:58.286Z,100642.06
2022-08-08T15:30:12.299Z,100638.69
2022-08-08T15:32:40.598Z,100644.84
2022-08-08T15:35:10.943Z,100641.81
2022-08-08T15:37:38.521Z,100642.03
2022-08-08T15:40:11.130Z,100640.13
2022-08-08T15:42:39.596Z,100652.13
2022-08-08T15:45:07.170Z,100649.38
2022-08-08T15:47:34.437Z,100650.06
2022-08-08T15:50:02.610Z,100654.69
2022-08-08T15:52:31.288Z,100641.16
2022-08-08T15:55:00.474Z,100653.84
2022-08-08T15:57:35.197Z,100649.38
2022-08-08T16:00:05.913Z,100652.91
2022-08-08T16:02:53.123Z,100656.66
2022-08-08T16:05:23.539Z,100651.16
2022-08-08T16:07:53.824Z,100657.53
2022-08-08T16:13:10.233Z,100658.22
2022-08-08T16:13:29.954Z,100660.28
2022-08-08T16:16:09.282Z,100668.41
2022-08-08T16:18:44.673Z,100662.72
2022-08-08T16:21:27.080Z,100660.84
2022-08-08T16:23:56.303Z,100664.44
2022-08-08T16:26:34.720Z,100668.22
2022-08-08T16:29:15.616Z,100660.66
2022-08-08T16:31:49.094Z,100655.34
2022-08-08T16:34:18.805Z,100657.06
2022-08-08T16:36:49.321Z,100654.66
2022-08-08T16:39:48.944Z,100648.47
2022-08-08T16:42:06.044Z,100657.56
2022-08-08T16:44:34.308Z,100650.50
2022-08-08T16:47:16.851Z,100652.41
2022-08-08T16:49:44.573Z,100646.06
2022-08-08T16:55:00.526Z,100647.78
2022-08-08T16:55:34.366Z,100647.94
2022-08-08T16:58:16.349Z,100647.09
2022-08-08T17:00:42.782Z,100647.44
2022-08-08T17:03:24.447Z,100642.78
2022-08-08T17:05:53.764Z,100643.81
2022-08-08T17:08:23.592Z,100643.09
2022-08-08T17:10:58.075Z,100646.03
2022-08-08T17:13:27.529Z,100639.00
2022-08-08T17:16:15.452Z,100649.28
2022-08-08T17:18:43.564Z,100650.31
2022-08-08T17:21:13.753Z,100649.75
2022-08-08T17:24:00.066Z,100649.06
2022-08-08T17:26:29.276Z,100650.09
2022-08-08T17:28:57.326Z,100661.06
2022-08-08T17:31:44.141Z,100662.09
2022-08-08T17:34:52.897Z,100661.22
2022-08-08T17:37:09.079Z,100671.50
2022-08-08T17:40:05.029Z,100666.50
2022-08-08T17:42:24.542Z,100673.00
2022-08-08T17:44:52.676Z,100675.94
2022-08-08T17:47:27.377Z,100682.44
2022-08-08T17:50:01.459Z,100688.22
2022-08-08T17:52:34.077Z,100691.31
2022-08-08T17:55:05.447Z,100692.31
2022-08-08T17:57:50.842Z,100700.56
2022-08-08T18:00:25.908Z,100691.88
2022-08-08T18:03:08.316Z,100702.63
2022-08-08T18:05:48.470Z,100708.56
2022-08-08T18:08:24.625Z,100708.53
2022-08-08T18:11:06.297Z,100716.03
2022-08-08T18:13:35.034Z,100721.84
2022-08-08T18:16:09.685Z,100729.38
2022-08-08T18:18:42.443Z,100734.59
2022-08-08T18:21:35.276Z,100733.91
2022-08-08T18:23:59.865Z,100742.13
2022-08-08T18:26:28.180Z,100740.56
2022-08-08T18:28:56.535Z,100737.75
2022-08-08T18:31:27.780Z,100734.31
2022-08-08T18:34:25.769Z,100743.84
2022-08-08T18:36:44.552Z,100743.84
2022-08-08T18:39:16.518Z,100746.63
2022-08-08T18:41:58.097Z,100749.00
2022-08-08T18:44:27.674Z,100764.69
2022-08-08T18:46:57.941Z,100767.91
2022-08-08T18:49:32.575Z,100769.25
2022-08-08T18:52:18.631Z,100781.00
2022-08-08T18:55:00.652Z,100778.94
2022-08-08T18:57:41.939Z,100783.53
2022-08-08T19:00:16.575Z,100782.09
2022-08-08T19:02:55.446Z,100783.44
2022-08-08T19:05:32.486Z,100787.78
2022-08-08T19:08:09.241Z,100786.94
2022-08-08T19:10:37.732Z,100790.38
2022-08-08T19:13:20.781Z,100789.50
2022-08-08T19:15:51.891Z,100798.47
2022-08-08T19:18:33.248Z,100809.41
2022-08-08T19:21:29.272Z,100803.69
2022-08-08T19:23:57.574Z,100808.59
2022-08-08T19:26:29.702Z,100815.38
2022-08-08T19:28:59.328Z,100816.06
2022-08-08T19:31:31.070Z,100810.72
2022-08-08T19:34:30.464Z,100819.78
2022-08-08T19:36:46.569Z,100822.13
2022-08-08T19:39:15.466Z,100832.13
2022-08-08T19:41:42.720Z,100829.09
2022-08-08T19:44:12.826Z,100837.31
2022-08-08T19:46:40.747Z,100828.78
2022-08-08T19:49:09.643Z,100845.81
2022-08-08T19:51:41.483Z,100841.63
2022-08-08T19:54:11.387Z,100838.13
2022-08-08T19:56:41.457Z,100840.88
2022-08-08T19:59:15.892Z,100837.28
2022-08-08T20:02:01.087Z,100840.16
2022-08-08T20:04:31.180Z,100832.41
2022-08-08T20:07:03.487Z,100830.25
2022-08-08T20:09:32.683Z,100833.41
2022-08-08T20:12:11.749Z,100836.28
2022-08-08T20:14:51.749Z,100836.75
2022-08-08T20:17:27.748Z,100850.63
2022-08-08T20:20:08.487Z,100849.16
2022-08-08T20:22:38.710Z,100852.50
2022-08-08T20:25:14.103Z,100846.13
2022-08-08T20:27:43.817Z,100844.53
2022-08-08T20:30:53.146Z,100840.66
2022-08-08T20:33:04.913Z,100833.56
2022-08-08T20:35:56.920Z,100838.75
2022-08-08T20:38:32.538Z,100840.22
2022-08-08T20:41:05.384Z,100844.69
2022-08-08T20:43:43.055Z,100844.16
2022-08-08T20:46:11.607Z,100841.56
2022-08-08T20:48:38.972Z,100848.34
2022-08-08T20:51:08.286Z,100855.38
2022-08-08T20:53:59.204Z,100858.97
2022-08-08T20:56:35.339Z,100869.81
2022-08-08T20:59:05.968Z,100859.44
2022-08-08T21:02:05.436Z,100862.00
2022-08-08T21:04:21.152Z,100863.16
2022-08-08T21:06:52.748Z,100863.00
2022-08-08T21:09:21.833Z,100871.50
2022-08-08T21:11:50.634Z,100863.72
2022-08-08T21:14:30.249Z,100877.69
2022-08-08T21:17:01.496Z,100874.50
2022-08-08T21:19:44.314Z,100878.38
2022-08-08T21:22:14.306Z,100878.38
2022-08-08T21:24:42.063Z,100880.09
2022-08-08T21:28:05.887Z,100884.88
2022-08-08T21:30:12.363Z,100889.19
2022-08-08T21:32:52.298Z,100892.06
2022-08-08T21:36:18.000Z,100891.06
2022-08-08T21:38:17.064Z,100885.34
2022-08-08T21:40:56.474Z,100899.97
2022-08-08T21:43:25.283Z,100896.00
2022-08-08T21:48:06.011Z,100898.59
2022-08-08T21:48:41.639Z,100907.34
2022-08-08T21:51:13.305Z,100916.72
2022-08-08T21:54:32.491Z,100916.31
2022-08-08T21:56:38.173Z,100921.63
2022-08-08T21:59:10.749Z,100925.22
2022-08-08T22:01:42.831Z,100927.97
2022-08-08T22:04:11.432Z,100927.50
2022-08-08T22:06:40.400Z,100927.38
2022-08-08T22:09:09.427Z,100941.47
2022-08-08T22:12:02.873Z,100937.03
2022-08-08T22:14:26.552Z,100946.38
2022-08-08T22:16:56.285Z,100953.72
2022-08-08T22:19:24.257Z,100953.72
2022-08-08T22:21:53.082Z,100955.44
2022-08-08T22:24:28.062Z,100959.75
2022-08-08T22:27:01.616Z,100954.28
2022-08-08T22:30:01.358Z,100954.59
2022-08-08T22:32:18.896Z,100953.09
2022-08-08T22:34:51.074Z,100957.84
2022-08-08T22:37:27.586Z,100945.59
2022-08-08T22:40:07.652Z,100951.50
2022-08-08T22:42:47.115Z,100950.50
2022-08-08T22:45:15.606Z,100951.50
2022-08-08T22:47:48.650Z,100953.78
2022-08-08T22:50:26.178Z,100953.22
2022-08-08T22:54:27.802Z,100949.47
2022-08-08T22:55:58.481Z,100946.59
2022-08-08T22:58:31.017Z,100953.75
2022-08-08T23:00:59.765Z,100946.56
2022-08-08T23:03:53.809Z,100953.75
2022-08-08T23:06:16.581Z,100955.63
2022-08-08T23:08:54.569Z,100961.00
2022-08-08T23:11:58.064Z,100963.81
2022-08-08T23:14:11.940Z,100971.16
2022-08-08T23:16:43.569Z,100967.41
2022-08-08T23:19:11.884Z,100964.28
2022-08-08T23:21:39.215Z,100972.16
2022-08-08T23:24:07.017Z,100967.72
2022-08-08T23:26:34.488Z,100964.13
2022-08-08T23:29:02.059Z,100963.25
2022-08-08T23:31:29.233Z,100969.72
2022-08-08T23:34:17.164Z,100970.44
2022-08-08T23:36:46.868Z,100977.91
2022-08-08T23:39:14.690Z,100975.56
2022-08-08T23:41:46.877Z,100975.16
2022-08-08T23:44:18.762Z,100976.44
2022-08-08T23:49:07.325Z,100970.53
2022-08-08T23:49:34.331Z,100975.84
2022-08-08T23:52:05.473Z,100976.53
2022-08-08T23:54:41.402Z,100977.28
2022-08-08T23:57:26.678Z,100980.13
